createdAt,value
2019-03-16T00:01:57.157Z,82.92
2019-03-16T00:04:20.241Z,89.22
2019-03-16T00:06:50.402Z,80.50
2019-03-16T00:09:20.622Z,88.50
2019-03-16T00:11:50.821Z,97.78
2019-03-16T00:14:21.323Z,102.85
2019-03-16T00:16:51.493Z,91.65
2019-03-16T00:19:21.723Z,80.32
2019-03-16T00:21:51.893Z,91.75
2019-03-16T00:24:22.180Z,88.30
2019-03-16T00:26:52.338Z,91.63
2019-03-16T00:29:22.557Z,88.95
2019-03-16T00:31:52.773Z,126.78
2019-03-16T00:34:22.999Z,89.40
2019-03-16T00:36:53.243Z,85.90
2019-03-16T00:39:23.448Z,81.25
2019-03-16T00:41:53.673Z,90.30
2019-03-16T00:44:23.883Z,91.85
2019-03-16T00:46:54.146Z,87.67
2019-03-16T00:49:24.376Z,84.17
2019-03-16T00:51:54.594Z,82.82
2019-03-16T00:54:24.816Z,81.02
2019-03-16T00:56:55.044Z,81.63
2019-03-16T00:59:25.274Z,84.17
2019-03-16T01:01:56.806Z,86.50
2019-03-16T01:04:26.975Z,80.45
2019-03-16T01:06:57.192Z,76.97
2019-03-16T01:09:27.355Z,79.90
2019-03-16T01:11:57.577Z,79.97
2019-03-16T01:14:27.765Z,77.42
2019-03-16T01:16:57.991Z,75.52
2019-03-16T01:19:28.192Z,77.37
2019-03-16T01:21:58.391Z,84.60
2019-03-16T01:24:28.566Z,75.42
2019-03-16T01:26:58.787Z,75.37
2019-03-16T01:29:28.946Z,80.05
2019-03-16T01:31:59.176Z,86.05
2019-03-16T01:34:29.483Z,84.05
2019-03-16T01:36:59.703Z,82.45
2019-03-16T01:39:29.946Z,74.00
2019-03-16T01:42:00.173Z,77.20
2019-03-16T01:44:30.393Z,81.30
2019-03-16T01:47:01.701Z,75.95
2019-03-16T01:49:31.922Z,77.03
2019-03-16T01:52:02.150Z,79.45
2019-03-16T01:54:32.373Z,81.57
2019-03-16T01:57:02.605Z,87.92
2019-03-16T01:59:32.811Z,79.30
2019-03-16T02:02:03.133Z,74.05
2019-03-16T02:04:33.303Z,84.42
2019-03-16T02:07:03.545Z,76.07
2019-03-16T02:09:33.711Z,71.75
2019-03-16T02:12:03.935Z,83.87
2019-03-16T02:14:34.110Z,81.42
2019-03-16T02:17:04.349Z,80.17
2019-03-16T02:19:36.005Z,71.95
2019-03-16T02:22:06.375Z,76.50
2019-03-16T02:24:36.577Z,77.97
2019-03-16T02:27:06.747Z,88.12
2019-03-16T02:29:36.968Z,81.87
2019-03-16T02:32:07.149Z,76.75
2019-03-16T02:34:37.385Z,82.12
2019-03-16T02:37:07.542Z,80.47
2019-03-16T02:39:37.760Z,82.88
2019-03-16T02:42:07.980Z,75.22
2019-03-16T02:44:38.147Z,84.42
2019-03-16T02:47:08.371Z,82.78
2019-03-16T02:49:38.538Z,73.60
2019-03-16T02:52:08.755Z,79.00
2019-03-16T02:54:38.922Z,80.70
2019-03-16T02:57:09.152Z,79.45
2019-03-16T02:59:39.397Z,76.22
2019-03-16T03:02:09.699Z,78.70
2019-03-16T03:04:39.920Z,91.10
2019-03-16T03:07:10.136Z,85.60
2019-03-16T03:09:40.448Z,74.42
2019-03-16T03:12:10.709Z,80.42
2019-03-16T03:14:40.932Z,76.87
2019-03-16T03:17:11.136Z,78.55
2019-03-16T03:19:42.357Z,74.50
2019-03-16T03:22:12.576Z,79.80
2019-03-16T03:24:44.529Z,70.72
2019-03-16T03:27:14.597Z,71.62
2019-03-16T03:29:46.013Z,75.62
2019-03-16T03:32:16.182Z,74.65
2019-03-16T03:34:46.407Z,84.03
2019-03-16T03:37:16.558Z,75.30
2019-03-16T03:39:46.728Z,74.35
2019-03-16T03:42:16.950Z,74.70
2019-03-16T03:44:47.155Z,88.65
2019-03-16T03:47:17.391Z,78.33
2019-03-16T03:49:48.646Z,62.65
2019-03-16T03:52:18.874Z,81.35
2019-03-16T03:54:50.031Z,99.90
2019-03-16T03:57:20.261Z,83.52
2019-03-16T03:59:50.427Z,85.57
2019-03-16T04:02:20.762Z,88.47
2019-03-16T04:04:51.007Z,82.17
2019-03-16T04:07:21.236Z,89.07
2019-03-16T04:09:51.406Z,94.13
2019-03-16T04:12:21.631Z,92.27
2019-03-16T04:14:51.804Z,73.65
2019-03-16T04:17:22.021Z,78.87
2019-03-16T04:19:52.195Z,78.25
2019-03-16T04:22:22.411Z,70.47
2019-03-16T04:24:52.585Z,75.08
2019-03-16T04:27:22.800Z,85.65
2019-03-16T04:29:52.961Z,82.00
2019-03-16T04:32:23.196Z,76.62
2019-03-16T04:34:53.355Z,80.57
2019-03-16T04:37:23.571Z,90.90
2019-03-16T04:39:53.732Z,77.37
2019-03-16T04:42:23.981Z,72.82
2019-03-16T04:44:54.143Z,80.07
2019-03-16T04:47:24.384Z,92.30
2019-03-16T04:49:54.545Z,77.40
2019-03-16T04:52:24.764Z,83.37
2019-03-16T04:54:54.932Z,82.27
2019-03-16T04:57:25.163Z,80.28
2019-03-16T04:59:55.396Z,94.67
2019-03-16T05:02:25.662Z,94.87
2019-03-16T05:04:55.815Z,91.95
2019-03-16T05:07:26.030Z,77.58
2019-03-16T05:09:56.191Z,82.15
2019-03-16T05:12:26.428Z,83.27
2019-03-16T05:14:56.601Z,85.12
2019-03-16T05:17:26.814Z,78.87
2019-03-16T05:19:56.996Z,78.35
2019-03-16T05:22:27.221Z,80.67
2019-03-16T05:24:57.393Z,83.80
2019-03-16T05:27:27.624Z,75.70
2019-03-16T05:29:57.778Z,89.97
2019-03-16T05:32:27.994Z,83.40
2019-03-16T05:34:58.157Z,96.63
2019-03-16T05:37:28.386Z,92.80
2019-03-16T05:39:58.556Z,78.87
2019-03-16T05:42:28.766Z,90.92
2019-03-16T05:44:58.992Z,85.30
2019-03-16T05:47:29.222Z,101.12
2019-03-16T05:49:59.467Z,94.00
2019-03-16T05:52:29.669Z,87.27
2019-03-16T05:54:59.887Z,92.30
2019-03-16T05:57:30.104Z,88.30
2019-03-16T06:00:00.319Z,78.92
2019-03-16T06:02:30.719Z,79.77
2019-03-16T06:05:10.379Z,81.37
2019-03-16T06:07:32.789Z,84.75
2019-03-16T06:10:03.002Z,83.60
2019-03-16T06:12:33.221Z,79.35
2019-03-16T06:15:03.457Z,83.25
2019-03-16T06:17:33.686Z,87.82
2019-03-16T06:20:05.713Z,88.40
2019-03-16T06:22:35.881Z,85.62
2019-03-16T06:25:07.996Z,79.70
2019-03-16T06:30:10.732Z,72.45
2019-03-16T06:32:40.904Z,79.40
2019-03-16T06:35:24.094Z,82.45
2019-03-16T06:37:44.299Z,88.95
2019-03-16T06:40:14.538Z,148.90
2019-03-16T06:42:44.704Z,184.05
2019-03-16T06:45:14.949Z,151.87
2019-03-16T06:47:45.110Z,154.10
2019-03-16T06:50:16.030Z,152.22
2019-03-16T06:52:46.206Z,128.07
2019-03-16T06:55:16.431Z,103.87
2019-03-16T06:57:46.592Z,98.12
2019-03-16T07:00:18.241Z,103.53
2019-03-16T07:02:49.606Z,94.67
2019-03-16T07:05:23.343Z,104.78
2019-03-16T07:07:51.628Z,95.60
2019-03-16T07:10:21.872Z,102.38
2019-03-16T07:12:52.052Z,96.37
2019-03-16T07:15:22.279Z,100.65
2019-03-16T07:17:52.513Z,97.53
2019-03-16T07:20:22.736Z,101.53
2019-03-16T07:22:52.964Z,102.38
2019-03-16T07:25:23.214Z,100.87
2019-03-16T07:27:53.444Z,105.30
2019-03-16T07:30:23.690Z,101.27
2019-03-16T07:32:53.933Z,106.05
2019-03-16T07:35:24.160Z,113.10
2019-03-16T07:37:54.395Z,108.25
2019-03-16T07:40:24.632Z,108.75
2019-03-16T07:42:54.865Z,109.35
2019-03-16T07:45:25.121Z,110.83
2019-03-16T07:47:55.350Z,106.95
2019-03-16T07:50:25.600Z,123.58
2019-03-16T07:52:55.830Z,109.65
2019-03-16T07:55:26.078Z,109.48
2019-03-16T07:57:56.308Z,107.70
2019-03-16T08:00:26.531Z,223.10
2019-03-16T08:02:56.768Z,109.00
2019-03-16T08:05:27.009Z,110.45
2019-03-16T08:07:57.497Z,111.30
2019-03-16T08:10:29.044Z,102.62
2019-03-16T08:12:59.231Z,131.43
2019-03-16T08:15:29.575Z,111.22
2019-03-16T08:17:59.862Z,121.53
2019-03-16T08:20:31.595Z,116.17
2019-03-16T08:23:02.266Z,109.40
2019-03-16T08:25:32.448Z,108.40
2019-03-16T08:28:02.699Z,118.00
2019-03-16T08:30:32.872Z,110.35
2019-03-16T08:33:03.423Z,107.22
2019-03-16T08:35:34.897Z,119.57
2019-03-16T08:38:05.124Z,116.20
2019-03-16T08:40:35.300Z,114.90
2019-03-16T08:43:05.541Z,113.45
2019-03-16T08:45:35.767Z,116.65
2019-03-16T08:48:05.992Z,123.85
2019-03-16T08:50:36.226Z,116.25
2019-03-16T08:53:06.478Z,119.95
2019-03-16T08:55:36.707Z,114.97
2019-03-16T08:58:06.973Z,121.55
2019-03-16T09:00:37.145Z,128.62
2019-03-16T09:03:07.405Z,119.45
2019-03-16T09:05:37.587Z,115.05
2019-03-16T09:08:07.834Z,112.15
2019-03-16T09:10:38.018Z,123.02
2019-03-16T09:13:08.261Z,129.07
2019-03-16T09:15:38.435Z,124.78
2019-03-16T09:18:08.681Z,114.40
2019-03-16T09:20:40.200Z,129.07
2019-03-16T09:23:10.443Z,115.37
2019-03-16T09:25:40.672Z,111.20
2019-03-16T09:28:18.541Z,119.80
2019-03-16T09:30:43.914Z,124.07
2019-03-16T09:33:14.321Z,116.97
2019-03-16T09:35:44.726Z,124.12
2019-03-16T09:38:14.956Z,109.27
2019-03-16T09:40:45.145Z,113.08
2019-03-16T09:43:15.371Z,108.12
2019-03-16T09:45:45.620Z,115.47
2019-03-16T09:48:15.857Z,110.10
2019-03-16T09:50:46.092Z,104.70
2019-03-16T09:53:16.345Z,103.05
2019-03-16T09:55:47.833Z,101.20
2019-03-16T09:58:30.475Z,103.00
2019-03-16T10:00:49.890Z,103.62
2019-03-16T10:03:20.118Z,106.17
2019-03-16T10:05:50.300Z,100.22
2019-03-16T10:08:20.526Z,111.70
2019-03-16T10:10:50.710Z,113.68
2019-03-16T10:13:20.939Z,111.57
2019-03-16T10:15:51.120Z,99.42
2019-03-16T10:18:22.646Z,107.23
2019-03-16T10:20:52.815Z,108.50
2019-03-16T10:23:23.155Z,101.45
2019-03-16T10:25:53.326Z,96.67
2019-03-16T10:28:23.564Z,96.08
2019-03-16T10:30:53.743Z,101.55
2019-03-16T10:33:23.978Z,102.20
2019-03-16T10:35:54.164Z,94.37
2019-03-16T10:38:24.392Z,92.00
2019-03-16T10:40:54.577Z,94.28
2019-03-16T10:43:24.913Z,91.22
2019-03-16T10:45:55.078Z,96.78
2019-03-16T10:48:25.329Z,88.15
2019-03-16T10:50:55.492Z,89.62
2019-03-16T10:53:25.726Z,100.27
2019-03-16T10:55:55.898Z,103.65
2019-03-16T10:58:26.164Z,109.60
2019-03-16T11:00:56.336Z,98.07
2019-03-16T11:03:26.573Z,90.00
2019-03-16T11:05:56.743Z,98.78
2019-03-16T11:08:26.969Z,95.85
2019-03-16T11:10:57.248Z,97.30
2019-03-16T11:13:27.475Z,94.32
2019-03-16T11:15:57.647Z,113.62
2019-03-16T11:18:27.885Z,87.40
2019-03-16T11:20:58.063Z,91.78
2019-03-16T11:23:28.391Z,97.65
2019-03-16T11:25:58.568Z,94.20
2019-03-16T11:28:28.816Z,97.53
2019-03-16T11:30:58.989Z,99.25
2019-03-16T11:33:29.221Z,105.15
2019-03-16T11:36:00.404Z,105.00
2019-03-16T11:38:30.658Z,96.85
2019-03-16T11:41:00.835Z,94.55
2019-03-16T11:43:32.351Z,99.30
2019-03-16T11:46:02.528Z,99.32
2019-03-16T11:48:32.862Z,102.70
2019-03-16T11:51:03.155Z,104.90
2019-03-16T11:53:33.390Z,103.90
2019-03-16T11:56:03.558Z,84.85
2019-03-16T11:58:33.787Z,88.03
2019-03-16T12:01:03.954Z,97.78
2019-03-16T12:03:34.187Z,90.35
2019-03-16T12:06:04.441Z,96.53
2019-03-16T12:08:34.726Z,96.53
2019-03-16T12:11:05.456Z,95.72
2019-03-16T12:13:35.682Z,92.02
2019-03-16T12:16:05.888Z,100.45
2019-03-16T12:18:36.136Z,108.17
2019-03-16T12:21:06.328Z,94.45
2019-03-16T12:23:36.567Z,95.75
2019-03-16T12:26:06.746Z,103.92
2019-03-16T12:28:36.985Z,93.65
2019-03-16T12:31:07.152Z,99.40
2019-03-16T12:33:37.614Z,96.45
2019-03-16T12:36:07.779Z,95.05
2019-03-16T12:38:38.005Z,95.95
2019-03-16T12:41:08.174Z,92.90
2019-03-16T12:43:38.419Z,100.00
2019-03-16T12:46:08.593Z,96.20
2019-03-16T12:48:39.949Z,98.40
2019-03-16T12:51:10.167Z,105.97
2019-03-16T12:53:40.591Z,110.75
2019-03-16T12:56:10.844Z,93.85
2019-03-16T12:58:41.071Z,98.25
2019-03-16T13:01:12.646Z,89.13
2019-03-16T13:03:43.341Z,93.55
2019-03-16T13:06:13.573Z,107.80
2019-03-16T13:08:43.807Z,93.80
2019-03-16T13:11:14.054Z,92.57
2019-03-16T13:13:44.272Z,86.72
2019-03-16T13:16:14.501Z,85.65
2019-03-16T13:18:44.716Z,87.22
2019-03-16T13:21:14.961Z,85.10
2019-03-16T13:23:45.304Z,92.72
2019-03-16T13:26:15.544Z,92.25
2019-03-16T13:28:45.764Z,85.22
2019-03-16T13:31:15.991Z,81.60
2019-03-16T13:33:46.317Z,89.28
2019-03-16T13:36:16.549Z,83.78
2019-03-16T13:38:46.794Z,86.35
2019-03-16T13:41:17.023Z,96.35
2019-03-16T13:43:47.260Z,83.95
2019-03-16T13:46:17.484Z,83.80
2019-03-16T13:48:47.711Z,88.35
2019-03-16T13:51:18.034Z,91.90
2019-03-16T13:53:48.285Z,81.90
2019-03-16T13:56:18.525Z,83.75
2019-03-16T13:58:49.167Z,86.08
2019-03-16T14:01:20.709Z,86.95
2019-03-16T14:03:50.949Z,76.85
2019-03-16T14:06:21.118Z,77.55
2019-03-16T14:08:51.354Z,78.17
2019-03-16T14:11:22.800Z,74.47
2019-03-16T14:13:53.015Z,93.60
2019-03-16T14:16:23.347Z,82.33
2019-03-16T14:18:54.069Z,86.55
2019-03-16T14:21:24.312Z,87.15
2019-03-16T14:23:54.487Z,76.40
2019-03-16T14:26:24.743Z,86.78
2019-03-16T14:28:54.890Z,79.55
2019-03-16T14:31:25.133Z,82.45
2019-03-16T14:33:55.304Z,79.05
2019-03-16T14:36:25.480Z,70.47
2019-03-16T14:38:55.719Z,80.83
2019-03-16T14:41:25.895Z,72.22
2019-03-16T14:43:56.523Z,76.47
2019-03-16T14:46:26.708Z,79.58
2019-03-16T14:48:56.930Z,80.03
2019-03-16T14:51:27.170Z,75.17
2019-03-16T14:53:57.396Z,74.40
2019-03-16T14:56:27.620Z,77.35
2019-03-16T14:58:57.840Z,75.97
2019-03-16T15:01:28.076Z,80.83
2019-03-16T15:03:58.299Z,75.65
2019-03-16T15:06:28.512Z,73.78
2019-03-16T15:08:58.739Z,71.12
2019-03-16T15:11:28.985Z,68.90
2019-03-16T15:13:59.216Z,66.37
2019-03-16T15:16:29.443Z,70.40
2019-03-16T15:18:59.674Z,69.85
2019-03-16T15:21:29.905Z,75.30
2019-03-16T15:24:00.153Z,67.32
2019-03-16T15:26:30.393Z,88.22
2019-03-16T15:29:00.628Z,71.15
2019-03-16T15:31:30.850Z,83.95
2019-03-16T15:34:01.093Z,75.35
2019-03-16T15:36:31.320Z,85.10
2019-03-16T15:39:02.595Z,75.85
2019-03-16T15:41:32.884Z,70.72
2019-03-16T15:44:03.111Z,68.25
2019-03-16T15:46:33.350Z,71.60
2019-03-16T15:49:03.674Z,77.35
2019-03-16T15:51:33.892Z,76.50
2019-03-16T15:54:04.157Z,74.22
2019-03-16T15:56:34.382Z,72.45
2019-03-16T15:59:04.601Z,72.72
2019-03-16T16:01:34.841Z,62.75
2019-03-16T16:04:05.074Z,74.47
2019-03-16T16:06:35.311Z,70.08
2019-03-16T16:09:06.634Z,73.55
2019-03-16T16:11:36.853Z,77.87
2019-03-16T16:14:07.080Z,69.55
2019-03-16T16:16:37.299Z,77.35
2019-03-16T16:19:07.521Z,73.05
2019-03-16T16:21:37.763Z,77.92
2019-03-16T16:24:07.981Z,70.17
2019-03-16T16:26:38.221Z,69.27
2019-03-16T16:29:08.627Z,76.97
2019-03-16T16:31:38.857Z,72.78
2019-03-16T16:34:09.073Z,64.62
2019-03-16T16:36:39.299Z,73.50
2019-03-16T16:39:09.524Z,72.65
2019-03-16T16:41:39.764Z,69.32
2019-03-16T16:44:09.987Z,74.25
2019-03-16T16:46:40.211Z,74.45
2019-03-16T16:49:10.435Z,71.30
2019-03-16T16:51:40.662Z,72.42
2019-03-16T16:54:10.903Z,73.10
2019-03-16T16:56:41.125Z,73.15
2019-03-16T16:59:11.359Z,74.55
2019-03-16T17:01:41.587Z,76.12
2019-03-16T17:04:13.034Z,89.13
2019-03-16T17:06:43.269Z,85.67
2019-03-16T17:09:13.498Z,73.37
2019-03-16T17:11:43.730Z,83.95
2019-03-16T17:14:13.964Z,75.47
2019-03-16T17:16:44.200Z,86.20
2019-03-16T17:19:14.471Z,74.40
2019-03-16T17:21:44.696Z,85.95
2019-03-16T17:24:14.928Z,79.12
2019-03-16T17:26:45.162Z,82.15
2019-03-16T17:29:15.391Z,83.05
2019-03-16T17:31:45.615Z,82.67
2019-03-16T17:34:15.858Z,82.45
2019-03-16T17:36:46.098Z,82.90
2019-03-16T17:39:16.306Z,79.85
2019-03-16T17:41:46.567Z,89.03
2019-03-16T17:44:16.756Z,78.15
2019-03-16T17:46:46.976Z,77.12
2019-03-16T17:49:17.190Z,97.10
2019-03-16T17:51:47.409Z,82.75
2019-03-16T17:54:17.654Z,79.10
2019-03-16T17:56:47.863Z,88.97
2019-03-16T17:59:18.105Z,76.28
2019-03-16T18:01:54.428Z,86.42
2019-03-16T18:04:21.491Z,78.42
2019-03-16T18:06:51.729Z,79.42
2019-03-16T18:09:21.951Z,83.75
2019-03-16T18:11:52.178Z,82.15
2019-03-16T18:14:22.407Z,84.83
2019-03-16T18:16:52.614Z,86.35
2019-03-16T18:19:22.793Z,89.92
2019-03-16T18:21:53.244Z,97.62
2019-03-16T18:24:23.433Z,94.62
2019-03-16T18:26:53.676Z,110.28
2019-03-16T18:29:23.851Z,99.80
2019-03-16T18:32:07.019Z,92.15
2019-03-16T18:34:25.875Z,97.95
2019-03-16T18:36:56.117Z,86.17
2019-03-16T18:39:26.293Z,90.12
2019-03-16T18:41:56.518Z,89.72
2019-03-16T18:44:27.700Z,86.47
2019-03-16T18:46:57.936Z,92.60
2019-03-16T18:49:28.113Z,85.35
2019-03-16T18:51:58.343Z,85.45
2019-03-16T18:54:28.585Z,85.97
2019-03-16T18:56:58.795Z,84.92
2019-03-16T18:59:29.039Z,84.77
2019-03-16T19:01:59.281Z,87.40
2019-03-16T19:04:29.509Z,90.00
2019-03-16T19:06:59.736Z,95.28
2019-03-16T19:09:29.964Z,91.12
2019-03-16T19:12:00.198Z,96.08
2019-03-16T19:14:30.418Z,91.05
2019-03-16T19:17:00.647Z,92.85
2019-03-16T19:19:30.875Z,94.67
2019-03-16T19:22:01.102Z,96.45
2019-03-16T19:24:31.343Z,103.22
2019-03-16T19:27:01.633Z,98.37
2019-03-16T19:29:31.859Z,105.52
2019-03-16T19:32:02.093Z,99.58
2019-03-16T19:34:32.326Z,95.00
2019-03-16T19:37:02.671Z,101.58
2019-03-16T19:39:33.141Z,101.27
2019-03-16T19:42:03.461Z,98.35
2019-03-16T19:44:33.709Z,145.80
2019-03-16T19:47:04.066Z,100.87
2019-03-16T19:49:34.317Z,93.17
2019-03-16T19:52:04.551Z,90.90
2019-03-16T19:54:34.764Z,98.22
2019-03-16T19:57:15.350Z,96.85
2019-03-16T19:59:37.914Z,89.60
2019-03-16T20:02:08.156Z,86.78
2019-03-16T20:04:38.392Z,94.40
2019-03-16T20:07:18.702Z,88.85
2019-03-16T20:09:40.502Z,101.12
2019-03-16T20:12:10.732Z,95.45
2019-03-16T20:14:40.977Z,103.02
2019-03-16T20:17:11.215Z,94.87
2019-03-16T20:19:41.426Z,97.30
2019-03-16T20:22:12.384Z,98.70
2019-03-16T20:24:42.690Z,97.85
2019-03-16T20:27:12.931Z,100.95
2019-03-16T20:29:43.159Z,100.50
2019-03-16T20:32:13.370Z,91.08
2019-03-16T20:34:43.642Z,94.67
2019-03-16T20:37:13.865Z,100.78
2019-03-16T20:39:44.114Z,106.78
2019-03-16T20:42:14.340Z,98.58
2019-03-16T20:44:44.582Z,100.02
2019-03-16T20:47:14.815Z,100.70
2019-03-16T20:49:45.061Z,98.40
2019-03-16T20:52:15.297Z,102.70
2019-03-16T20:54:45.524Z,90.55
2019-03-16T20:57:15.770Z,90.35
2019-03-16T20:59:45.993Z,104.05
2019-03-16T21:02:16.307Z,97.12
2019-03-16T21:04:46.548Z,98.05
2019-03-16T21:07:16.776Z,95.87
2019-03-16T21:09:46.998Z,96.40
2019-03-16T21:12:17.237Z,104.25
2019-03-16T21:14:47.453Z,93.47
2019-03-16T21:17:17.679Z,97.35
2019-03-16T21:19:47.907Z,98.20
2019-03-16T21:22:18.123Z,106.40
2019-03-16T21:24:48.387Z,94.75
2019-03-16T21:27:18.594Z,90.42
2019-03-16T21:29:48.836Z,95.60
2019-03-16T21:32:20.354Z,90.25
2019-03-16T21:34:50.566Z,92.95
2019-03-16T21:37:21.138Z,98.12
2019-03-16T21:39:51.398Z,93.75
2019-03-16T21:42:21.621Z,94.40
2019-03-16T21:44:51.838Z,94.85
2019-03-16T21:47:22.008Z,96.97
2019-03-16T21:49:52.235Z,102.62
2019-03-16T21:52:23.609Z,104.67
2019-03-16T21:54:53.835Z,104.83
2019-03-16T21:57:24.083Z,103.07
2019-03-16T21:59:54.380Z,99.25
2019-03-16T22:02:24.617Z,100.85
2019-03-16T22:04:54.850Z,102.27
2019-03-16T22:07:25.082Z,102.27
2019-03-16T22:09:55.313Z,88.62
2019-03-16T22:12:25.528Z,103.75
2019-03-16T22:14:55.760Z,100.72
2019-03-16T22:17:25.979Z,97.85
2019-03-16T22:19:56.265Z,97.30
2019-03-16T22:22:26.515Z,108.22
2019-03-16T22:24:56.727Z,107.22
2019-03-16T22:27:26.969Z,105.12
2019-03-16T22:29:57.285Z,90.05
2019-03-16T22:32:27.526Z,94.97
2019-03-16T22:34:58.054Z,114.40
2019-03-16T22:37:28.288Z,110.12
2019-03-16T22:39:58.532Z,97.67
2019-03-16T22:42:28.764Z,88.15
2019-03-16T22:44:58.989Z,105.95
2019-03-16T22:47:29.237Z,93.03
2019-03-16T22:49:59.454Z,99.13
2019-03-16T22:52:29.678Z,99.60
2019-03-16T22:54:59.900Z,98.82
2019-03-16T22:57:30.123Z,90.03
2019-03-16T23:00:00.374Z,95.55
2019-03-16T23:02:30.575Z,96.53
2019-03-16T23:05:00.804Z,97.05
2019-03-16T23:07:31.033Z,105.52
2019-03-16T23:10:01.260Z,107.00
2019-03-16T23:12:31.490Z,103.30
2019-03-16T23:15:01.726Z,99.52
2019-03-16T23:17:32.053Z,104.87
2019-03-16T23:20:02.280Z,102.82
2019-03-16T23:22:32.512Z,91.63
2019-03-16T23:25:02.805Z,96.72
2019-03-16T23:27:33.025Z,99.67
2019-03-16T23:30:03.254Z,113.47
2019-03-16T23:32:35.294Z,108.67
2019-03-16T23:35:06.994Z,105.37
2019-03-16T23:37:37.213Z,97.70
2019-03-16T23:40:10.603Z,108.40
2019-03-16T23:42:40.845Z,109.35
2019-03-16T23:45:13.190Z,111.72
2019-03-16T23:47:43.410Z,112.60
2019-03-16T23:50:14.537Z,111.35
2019-03-16T23:52:44.793Z,106.83
2019-03-16T23:55:15.022Z,112.92
2019-03-16T23:57:45.232Z,123.95
